首页
METAR-TAF:

METAR-TAF

机场 :

青島流亭國際機場

青岛, 中华人民共和国

纬度: 36-04N, 经度: 120-20E, 海拔: 77米

当前天气观测

该预报发布于1小时和1分钟前的07:00 UTC
风速12节,风向
温度 18°C
湿度 88%
气压 1009 hPa
能见度10公里或以上
散云层高于1000英尺

METAR: ZSQD 220700Z 36006MPS 9999 SCT010 18/16 Q1009 NOSIG

时间: 16:01 (08:01 UTC)

预报

该预报发布于4小时和50分钟前的03:11 UTC
预报有效从22日的 06点(UTC)到 23日的 06点(UTC)
风速10节,风向北转西北
能見度: 3500
多云层高于2000英尺
轻雾

TAF: ZSQD 220311Z 2206/2306 34005MPS 3500 BR BKN020 TX26/2305Z TN11/2221Z

超过4000个机场的气象观测和天气预报(METAR&TAF报告)。

可查询的气象台以黄色和红色小点在地图上表示。

将鼠标移到小点上方,可查看气象台名称。

然后点击查看天气观测和预报。

如需切换地图:点击带黑十字的绿色按钮放大地图;点击带横线的绿色按钮缩小地图;或者点击绿色箭头查看邻近地区的地图。


METAR-TAF: